To NAV CANADA Home Page Login to a new session Search on AWWS site Feedback and Comments Disclaimer Vers la page française équivalente Tips FAQ What's new on the site To the Forecasts and Observations / NOTAM section To "File a Flight Plan" website Publications and other links Update of the User's profile FIC Telephone Numbers My Weather Data Folder Route Weather Data Regional Weather Data Local Weather Data To the Forecasts and Observations / NOTAM section
Request Generated 03/23/2017 at 00:12:21 UTC . Weather information available at that time is displayed.

METAR/TAF

LLOYDMINSTER/AB    (show WxCam)

METAR CYLL 230000Z 35006KT 1SM -SN BR OVC015 M03/M03 A2959 RMK ST8
SLP055=
SPECI CYLL 222352Z 34006KT 1 1/2SM -SN BR OVC015 M03/M03 A2958 RMK
ST8 SLP054=
SPECI CYLL 222329Z 35006KT 3/4SM -SN BR OVC007 M03/M03 A2958 RMK ST8
SLP053=
SPECI CYLL 222311Z 36005KT 1SM -SN BR OVC009 M03/M03 A2958 RMK SC8
SLP052=
METAR CYLL 222300Z 36004KT 2SM -SN BR BKN009 OVC022 M03/M03 A2958 RMK
SC6SC2 SLP052=
METAR CYLL 222200Z 08007KT 1 1/2SM -SN BR OVC011 M03/M03 A2956 RMK
ST8 SLP046=

TAF CYLL 222349Z 2300/2312 35005KT 1/2SM SN OVC005 TEMPO 2300/2303
4SM -SN BR OVC015
FM230300 34008KT 4SM -SN OVC025 TEMPO 2303/2306 1SM -SN OVC020
FM230600 30006KT P6SM SCT008 OVC020 PROB30 2306/2312 1/2SM FZFG
VV004
RMK NXT FCST BY 230600Z=
Your time UTC time
Weather data provided by Environment Canada and NAV CANADA